| time (UTC) | temp C | wind direction | speed KPH | gust KPH | rain 1hr cm | rain 24hr cm | rain mn cm | humidity % | barometer mb |
| 20260510164718 | 13 | 72 | 8.0 | 12.9 | 0.00 | 0.00 | 0.00 | 59 | 896.4 |
| 20260510164215 | 13 | 82 | 12.9 | 14.5 | 0.00 | 0.00 | 0.00 | 59 | 896.4 |
| 20260510163710 | 13 | 45 | 1.6 | 1.6 | 0.00 | 0.00 | 0.00 | 60 | 896.5 |
| 20260510163206 | 13 | 333 | 4.8 | 9.7 | 0.00 | 0.00 | 0.00 | 61 | 896.5 |
| 20260510162705 | 13 | 155 | 8.0 | 11.3 | 0.00 | 0.00 | 0.00 | 59 | 896.4 |
| 20260510162203 | 13 | 100 | 8.0 | 11.3 | 0.00 | 0.00 | 0.00 | 61 | 896.3 |
| 20260510161658 | 12 | 40 | 1.6 | 3.2 | 0.00 | 0.00 | 0.00 | 63 | 896.4 |
| 20260510161155 | 12 | 7 | 8.0 | 12.9 | 0.00 | 0.00 | 0.00 | 64 | 896.5 |
| 20260510160652 | 12 | 60 | 4.8 | 8.0 | 0.00 | 0.00 | 0.00 | 62 | 896.3 |
| 20260510160147 | 13 | 133 | 6.4 | 12.9 | 0.00 | 0.00 | 0.00 | 61 | 896.3 |
| 20260510155643 | 13 | 73 | 1.6 | 3.2 | 0.00 | 0.00 | 0.00 | 61 | 896.5 |
| 20260510155139 | 12 | 339 | 8.0 | 11.3 | 0.00 | 0.00 | 0.00 | 62 | 896.4 |
| 20260510154635 | 12 | 29 | 3.2 | 8.0 | 0.00 | 0.00 | 0.00 | 64 | 896.2 |
| 20260510154131 | 12 | 27 | 6.4 | 8.0 | 0.00 | 0.00 | 0.00 | 66 | 896.1 |
| 20260510153626 | 12 | 91 | 4.8 | 8.0 | 0.00 | 0.00 | 0.00 | 66 | 896.4 |
| 20260510153123 | 12 | 120 | 4.8 | 8.0 | 0.00 | 0.00 | 0.00 | 66 | 896.4 |
| 20260510152620 | 11 | 321 | 1.6 | 4.8 | 0.00 | 0.00 | 0.00 | 68 | 896.2 |
| 20260510152116 | 11 | 60 | 8.0 | 11.3 | 0.00 | 0.00 | 0.00 | 68 | 896.0 |
| 20260510151613 | 11 | 97 | 1.6 | 3.2 | 0.00 | 0.00 | 0.00 | 69 | 895.9 |
| 20260510151111 | 11 | 224 | 9.7 | 12.9 | 0.00 | 0.00 | 0.00 | 70 | 896.0 |
| 20260510150606 | 11 | 3 | 8.0 | 12.9 | 0.00 | 0.00 | 0.00 | 70 | 895.7 |
| 20260510145559 | 11 | 0 | 6.4 | 9.7 | 0.00 | 0.00 | 0.00 | 71 | 895.8 |
| 20260510145055 | 11 | 18 | 4.8 | 4.8 | 0.00 | 0.00 | 0.00 | 71 | 895.7 |
| 20260510144552 | 11 | 339 | 4.8 | 8.0 | 0.00 | 0.00 | 0.00 | 71 | 895.7 |
| 20260510144048 | 10 | 14 | 6.4 | 8.0 | 0.00 | 0.00 | 0.00 | 71 | 895.7 |
| 20260510143543 | 10 | 320 | 4.8 | 8.0 | 0.00 | 0.00 | 0.00 | 72 | 895.8 |
| 20260510143040 | 10 | 333 | 6.4 | 9.7 | 0.00 | 0.00 | 0.00 | 72 | 895.7 |
| 20260510142537 | 10 | 10 | 4.8 | 4.8 | 0.00 | 0.00 | 0.00 | 72 | 895.6 |
| 20260510142033 | 10 | 352 | 8.0 | 9.7 | 0.00 | 0.00 | 0.00 | 71 | 895.7 |
| 20260510141530 | 10 | 354 | 6.4 | 9.7 | 0.00 | 0.00 | 0.00 | 70 | 895.6 |
| 20260510141028 | 10 | 41 | 4.8 | 8.0 | 0.00 | 0.00 | 0.00 | 69 | 895.4 |
| 20260510140524 | 10 | 291 | 9.7 | 11.3 | 0.00 | 0.00 | 0.00 | 69 | 895.3 |
| 20260510140023 | 10 | 38 | 8.0 | 12.9 | 0.00 | 0.00 | 0.00 | 69 | 895.4 |
| 20260510135519 | 11 | 139 | 4.8 | 8.0 | 0.00 | 0.00 | 0.00 | 68 | 895.5 |
| 20260510135016 | 10 | 250 | 8.0 | 11.3 | 0.00 | 0.00 | 0.00 | 68 | 895.2 |
| 20260510134513 | 10 | 316 | 12.9 | 20.9 | 0.00 | 0.00 | 0.00 | 68 | 895.3 |
| 20260510134010 | 10 | 348 | 8.0 | 9.7 | 0.00 | 0.00 | 0.00 | 69 | 894.9 |
| 20260510133505 | 10 | 314 | 9.7 | 14.5 | 0.00 | 0.00 | 0.00 | 70 | 894.8 |
| 20260510133002 | 10 | 270 | 9.7 | 11.3 | 0.00 | 0.00 | 0.00 | 70 | 894.9 |
| 20260510132459 | 10 | 331 | 8.0 | 12.9 | 0.00 | 0.00 | 0.00 | 70 | 894.7 |
| 20260510131955 | 10 | 83 | 12.9 | 17.7 | 0.00 | 0.00 | 0.00 | 69 | 894.8 |
| 20260510131454 | 10 | 357 | 8.0 | 11.3 | 0.00 | 0.00 | 0.00 | 69 | 894.5 |
| 20260510130950 | 10 | 291 | 9.7 | 14.5 | 0.00 | 0.00 | 0.00 | 69 | 894.6 |
| 20260510130446 | 10 | 323 | 6.4 | 11.3 | 0.00 | 0.00 | 0.00 | 69 | 894.5 |
| 20260510125944 | 10 | 8 | 9.7 | 14.5 | 0.00 | 0.00 | 0.00 | 69 | 894.6 |
| 20260510125440 | 10 | 338 | 6.4 | 11.3 | 0.00 | 0.00 | 0.00 | 69 | 894.5 |
| 20260510124937 | 10 | 28 | 1.6 | 3.2 | 0.00 | 0.00 | 0.00 | 69 | 894.3 |
| 20260510124433 | 10 | 4 | 11.3 | 16.1 | 0.00 | 0.00 | 0.00 | 70 | 894.1 |
| 20260510123930 | 10 | 80 | 8.0 | 11.3 | 0.00 | 0.00 | 0.00 | 70 | 894.4 |
| 20260510123426 | 10 | 331 | 11.3 | 16.1 | 0.00 | 0.00 | 0.00 | 70 | 894.3 |
| 20260510122922 | 10 | 337 | 9.7 | 14.5 | 0.00 | 0.00 | 0.00 | 70 | 894.2 |
| 20260510122417 | 10 | 17 | 3.2 | 4.8 | 0.00 | 0.00 | 0.00 | 70 | 894.0 |
| 20260510121913 | 10 | 42 | 3.2 | 3.2 | 0.00 | 0.00 | 0.00 | 70 | 894.1 |
| 20260510121411 | 10 | 116 | 6.4 | 9.7 | 0.00 | 0.00 | 0.00 | 70 | 894.0 |
| 20260510120908 | 10 | 332 | 9.7 | 17.7 | 0.00 | 0.00 | 0.00 | 70 | 894.0 |
| 20260510120405 | 10 | 317 | 8.0 | 9.7 | 0.00 | 0.00 | 0.00 | 70 | 893.8 |
| 20260510115901 | 10 | 5 | 8.0 | 14.5 | 0.00 | 0.00 | 0.00 | 70 | 893.6 |
| 20260510115357 | 9 | 4 | 6.4 | 11.3 | 0.00 | 0.00 | 0.00 | 71 | 893.9 |
| 20260510114854 | 9 | 333 | 6.4 | 9.7 | 0.00 | 0.00 | 0.00 | 71 | 893.5 |
| 20260510114351 | 9 | 25 | 6.4 | 11.3 | 0.00 | 0.00 | 0.00 | 71 | 893.7 |
| 20260510113852 | 9 | 122 | 4.8 | 8.0 | 0.00 | 0.00 | 0.00 | 71 | 893.5 |
| 20260510113347 | 9 | 348 | 3.2 | 4.8 | 0.00 | 0.00 | 0.00 | 72 | 893.4 |
| 20260510112844 | 9 | 1 | 6.4 | 12.9 | 0.00 | 0.00 | 0.00 | 72 | 893.5 |
| 20260510112342 | 9 | 1 | 8.0 | 11.3 | 0.00 | 0.00 | 0.00 | 72 | 893.3 |
| 20260510111837 | 9 | 33 | 4.8 | 4.8 | 0.00 | 0.00 | 0.00 | 72 | 893.5 |
| 20260510111334 | 9 | 251 | 6.4 | 11.3 | 0.00 | 0.00 | 0.00 | 72 | 893.0 |
| 20260510110833 | 9 | 42 | 3.2 | 8.0 | 0.00 | 0.00 | 0.00 | 72 | 893.3 |
| 20260510110332 | 10 | 57 | 6.4 | 9.7 | 0.00 | 0.00 | 0.00 | 72 | 893.2 |
| 20260510105828 | 10 | 28 | 6.4 | 8.0 | 0.00 | 0.00 | 0.00 | 72 | 893.2 |
| 20260510105328 | 10 | 23 | 4.8 | 4.8 | 0.00 | 0.00 | 0.00 | 72 | 893.2 |
| 20260510104824 | 10 | 11 | 4.8 | 8.0 | 0.00 | 0.00 | 0.00 | 72 | 893.2 |
| 20260510104321 | 10 | 298 | 4.8 | 9.7 | 0.00 | 0.00 | 0.00 | 72 | 892.9 |
| 20260510103817 | 10 | 15 | 6.4 | 9.7 | 0.00 | 0.00 | 0.00 | 72 | 893.0 |
| 20260510103314 | 10 | 218 | 6.4 | 9.7 | 0.00 | 0.00 | 0.00 | 72 | 892.9 |
| 20260510102810 | 10 | 359 | 6.4 | 11.3 | 0.00 | 0.00 | 0.00 | 72 | 892.5 |
| 20260510102306 | 10 | 200 | 8.0 | 12.9 | 0.00 | 0.00 | 0.00 | 72 | 892.3 |
| 20260510101803 | 9 | 36 | 8.0 | 11.3 | 0.00 | 0.00 | 0.00 | 73 | 892.2 |
| 20260510101301 | 9 | 26 | 8.0 | 16.1 | 0.00 | 0.00 | 0.00 | 73 | 892.1 |
| 20260510100757 | 9 | 99 | 8.0 | 11.3 | 0.00 | 0.00 | 0.00 | 73 | 891.7 |
| 20260510100255 | 9 | 28 | 4.8 | 9.7 | 0.00 | 0.00 | 0.00 | 72 | 891.4 |
| 20260510095750 | 10 | 353 | 8.0 | 9.7 | 0.00 | 0.00 | 0.00 | 72 | 891.3 |
| 20260510095245 | 10 | 314 | 8.0 | 12.9 | 0.00 | 0.00 | 0.00 | 72 | 891.1 |
| 20260510094744 | 10 | 321 | 14.5 | 22.5 | 0.00 | 0.00 | 0.00 | 71 | 891.0 |
| 20260510094240 | 10 | 329 | 8.0 | 12.9 | 0.00 | 0.00 | 0.00 | 71 | 891.2 |
| 20260510093736 | 10 | 353 | 11.3 | 14.5 | 0.00 | 0.00 | 0.00 | 71 | 891.3 |
| 20260510093234 | 10 | 315 | 11.3 | 14.5 | 0.00 | 0.00 | 0.00 | 70 | 891.3 |
| 20260510092730 | 10 | 30 | 4.8 | 8.0 | 0.00 | 0.00 | 0.00 | 70 | 891.5 |
| 20260510092226 | 10 | 20 | 8.0 | 11.3 | 0.00 | 0.00 | 0.00 | 70 | 891.7 |
| 20260510091721 | 10 | 37 | 6.4 | 11.3 | 0.00 | 0.00 | 0.00 | 70 | 891.8 |
| 20260510091218 | 10 | 15 | 9.7 | 12.9 | 0.00 | 0.00 | 0.00 | 70 | 891.9 |
| 20260510090715 | 10 | 144 | 4.8 | 8.0 | 0.00 | 0.00 | 0.00 | 70 | 892.0 |
| 20260510090212 | 10 | 25 | 11.3 | 17.7 | 0.00 | 0.00 | 0.00 | 70 | 891.8 |
| 20260510085706 | 10 | 341 | 8.0 | 9.7 | 0.00 | 0.00 | 0.00 | 69 | 892.0 |
| 20260510085202 | 10 | 31 | 3.2 | 3.2 | 0.00 | 0.00 | 0.00 | 70 | 891.6 |
| 20260510084658 | 11 | 38 | 0.0 | 1.6 | 0.00 | 0.00 | 0.00 | 70 | 891.4 |
| 20260510084155 | 11 | 343 | 6.4 | 11.3 | 0.00 | 0.00 | 0.00 | 69 | 891.3 |
| 20260510083652 | 11 | 72 | 9.7 | 20.9 | 0.00 | 0.00 | 0.00 | 68 | 891.3 |
| 20260510083149 | 11 | 357 | 9.7 | 14.5 | 0.00 | 0.00 | 0.00 | 69 | 891.1 |
| 20260510082645 | 11 | 282 | 8.0 | 9.7 | 0.00 | 0.00 | 0.00 | 67 | 890.9 |
| 20260510082141 | 12 | 347 | 11.3 | 22.5 | 0.00 | 0.00 | 0.00 | 66 | 891.0 |
| 20260510081635 | 12 | 92 | 11.3 | 24.1 | 0.00 | 0.00 | 0.00 | 65 | 890.8 |
| 20260510081132 | 12 | 29 | 11.3 | 14.5 | 0.00 | 0.00 | 0.00 | 65 | 891.0 |
| 20260510080631 | 12 | 16 | 14.5 | 24.1 | 0.00 | 0.00 | 0.00 | 66 | 890.7 |
| 20260510080128 | 12 | 8 | 12.9 | 16.1 | 0.00 | 0.00 | 0.00 | 65 | 890.5 |
| 20260510075625 | 12 | 295 | 11.3 | 17.7 | 0.00 | 0.00 | 0.00 | 66 | 890.6 |
| 20260510075122 | 12 | 332 | 12.9 | 16.1 | 0.00 | 0.00 | 0.00 | 64 | 890.6 |
| 20260510074619 | 12 | 19 | 11.3 | 22.5 | 0.00 | 0.00 | 0.00 | 64 | 890.5 |
| 20260510074115 | 13 | 295 | 8.0 | 12.9 | 0.00 | 0.00 | 0.00 | 64 | 890.1 |
| 20260510073611 | 13 | 342 | 6.4 | 9.7 | 0.00 | 0.00 | 0.00 | 62 | 890.2 |
| 20260510073109 | 13 | 31 | 6.4 | 9.7 | 0.00 | 0.00 | 0.00 | 62 | 890.1 |
| 20260510072605 | 13 | 280 | 8.0 | 12.9 | 0.00 | 0.00 | 0.00 | 61 | 890.0 |
| 20260510072101 | 13 | 104 | 11.3 | 14.5 | 0.00 | 0.00 | 0.00 | 61 | 889.9 |
| 20260510071557 | 13 | 342 | 6.4 | 9.7 | 0.00 | 0.00 | 0.00 | 60 | 890.1 |
| 20260510071055 | 13 | 141 | 9.7 | 14.5 | 0.00 | 0.00 | 0.00 | 59 | 889.6 |
| 20260510070552 | 13 | 115 | 4.8 | 8.0 | 0.00 | 0.00 | 0.00 | 57 | 889.3 |
| 20260510070049 | 13 | 33 | 4.8 | 8.0 | 0.00 | 0.00 | 0.00 | 55 | 889.3 |
| 20260510065545 | 13 | 236 | 0.0 | 1.6 | 0.00 | 0.00 | 0.00 | 53 | 889.2 |
| 20260510065041 | 13 | 273 | 1.6 | 1.6 | 0.00 | 0.00 | 0.00 | 53 | 888.7 |
| 20260510064538 | 13 | 145 | 0.0 | 0.0 | 0.00 | 0.00 | 0.00 | 52 | 888.8 |
| 20260510064034 | 14 | 159 | 0.0 | 0.0 | 0.00 | 0.00 | 0.00 | 52 | 888.5 |
| 20260510063531 | 14 | 100 | 0.0 | 0.0 | 0.00 | 0.00 | 0.00 | 50 | 888.4 |
| 20260510063029 | 14 | 186 | 0.0 | 0.0 | 0.00 | 0.00 | 0.00 | 50 | 888.1 |
| 20260510062524 | 15 | 148 | 0.0 | 0.0 | 0.00 | 0.00 | 0.00 | 49 | 887.9 |
| 20260510062019 | 15 | 65 | 3.2 | 8.0 | 0.00 | 0.00 | 0.00 | 49 | 887.6 |
| 20260510061516 | 15 | 147 | 0.0 | 0.0 | 0.00 | 0.00 | 0.00 | 47 | 887.7 |
| 20260510061013 | 15 | 212 | 0.0 | 0.0 | 0.00 | 0.00 | 0.00 | 47 | 887.8 |
| 20260510060510 | 15 | 161 | 0.0 | 1.6 | 0.00 | 0.00 | 0.00 | 46 | 887.4 |
| 20260510060006 | 15 | 186 | 0.0 | 0.0 | 0.00 | 0.00 | 0.00 | 45 | 887.2 |
| 20260510055502 | 16 | 106 | 0.0 | 0.0 | 0.00 | 0.00 | 0.00 | 44 | 887.3 |
| 20260510055000 | 16 | 143 | 0.0 | 1.6 | 0.00 | 0.00 | 0.00 | 43 | 887.4 |
| 20260510054455 | 16 | 132 | 0.0 | 0.0 | 0.00 | 0.00 | 0.00 | 43 | 887.2 |
| 20260510053950 | 16 | 98 | 0.0 | 0.0 | 0.00 | 0.00 | 0.00 | 42 | 887.2 |
| 20260510053446 | 16 | 39 | 0.0 | 1.6 | 0.00 | 0.00 | 0.00 | 41 | 887.5 |
| 20260510052942 | 16 | 18 | 0.0 | 0.0 | 0.00 | 0.00 | 0.00 | 41 | 887.8 |
| 20260510052438 | 16 | 70 | 0.0 | 1.6 | 0.00 | 0.00 | 0.00 | 42 | 887.7 |
| 20260510051935 | 17 | 337 | 1.6 | 8.0 | 0.00 | 0.00 | 0.00 | 41 | 887.9 |
| 20260510051431 | 17 | 40 | 1.6 | 3.2 | 0.00 | 0.00 | 0.00 | 40 | 887.9 |
| 20260510050927 | 17 | 36 | 3.2 | 4.8 | 0.00 | 0.00 | 0.00 | 39 | 887.8 |
| 20260510050424 | 17 | 130 | 0.0 | 0.0 | 0.00 | 0.00 | 0.00 | 39 | 888.1 |
| 20260510045921 | 18 | 46 | 0.0 | 0.0 | 0.00 | 0.00 | 0.00 | 38 | 888.1 |
| 20260510045419 | 18 | 180 | 4.8 | 8.0 | 0.00 | 0.00 | 0.00 | 37 | 887.8 |
| 20260510044915 | 18 | 354 | 1.6 | 4.8 | 0.00 | 0.00 | 0.00 | 37 | 888.2 |
| 20260510044412 | 18 | 179 | 6.4 | 12.9 | 0.00 | 0.00 | 0.00 | 37 | 888.1 |
| 20260510043909 | 19 | 275 | 9.7 | 14.5 | 0.00 | 0.00 | 0.00 | 35 | 888.1 |
| 20260510043405 | 20 | 173 | 1.6 | 1.6 | 0.00 | 0.00 | 0.00 | 33 | 887.8 |
| 20260510042903 | 20 | 228 | 4.8 | 8.0 | 0.00 | 0.00 | 0.00 | 33 | 887.8 |
| 20260510042359 | 20 | 300 | 8.0 | 12.9 | 0.00 | 0.00 | 0.00 | 32 | 887.6 |
| 20260510041855 | 20 | 358 | 8.0 | 11.3 | 0.00 | 0.00 | 0.00 | 30 | 887.6 |
| 20260510041352 | 20 | 60 | 0.0 | 1.6 | 0.00 | 0.00 | 0.00 | 31 | 887.8 |
| 20260510040849 | 20 | 23 | 3.2 | 8.0 | 0.00 | 0.00 | 0.00 | 30 | 887.6 |
| 20260510040346 | 20 | 63 | 0.0 | 0.0 | 0.00 | 0.00 | 0.00 | 31 | 887.8 |
| 20260510035842 | 20 | 259 | 1.6 | 3.2 | 0.00 | 0.00 | 0.00 | 30 | 887.6 |
| 20260510035338 | 20 | 324 | 1.6 | 3.2 | 0.00 | 0.00 | 0.00 | 29 | 887.5 |
| 20260510034833 | 21 | 141 | 0.0 | 0.0 | 0.00 | 0.00 | 0.00 | 29 | 887.3 |
| 20260510034332 | 21 | 284 | 0.0 | 1.6 | 0.00 | 0.00 | 0.00 | 27 | 887.3 |
| 20260510033828 | 21 | 76 | 0.0 | 1.6 | 0.00 | 0.00 | 0.00 | 28 | 887.0 |
| 20260510033325 | 21 | 41 | 0.0 | 1.6 | 0.00 | 0.00 | 0.00 | 26 | 887.0 |
| 20260510032821 | 21 | 168 | 0.0 | 1.6 | 0.00 | 0.00 | 0.00 | 27 | 886.8 |
| 20260510032318 | 22 | 6 | 8.0 | 11.3 | 0.00 | 0.00 | 0.00 | 26 | 886.6 |
| 20260510031814 | 22 | 324 | 8.0 | 11.3 | 0.00 | 0.00 | 0.00 | 24 | 886.9 |
| 20260510031309 | 22 | 226 | 0.0 | 0.0 | 0.00 | 0.00 | 0.00 | 25 | 886.7 |
| 20260510030803 | 21 | 24 | 6.4 | 11.3 | 0.00 | 0.00 | 0.00 | 26 | 886.9 |
| 20260510030300 | 22 | 79 | 0.0 | 1.6 | 0.00 | 0.00 | 0.00 | 26 | 886.8 |
| 20260510025757 | 22 | 318 | 6.4 | 8.0 | 0.00 | 0.00 | 0.00 | 26 | 887.0 |
| 20260510025255 | 22 | 326 | 1.6 | 4.8 | 0.00 | 0.00 | 0.00 | 25 | 886.9 |
| 20260510024751 | 22 | 335 | 8.0 | 14.5 | 0.00 | 0.00 | 0.00 | 25 | 886.9 |
| 20260510024249 | 21 | 341 | 9.7 | 16.1 | 0.00 | 0.00 | 0.00 | 27 | 886.6 |
| 20260510023744 | 22 | 300 | 3.2 | 3.2 | 0.00 | 0.00 | 0.00 | 27 | 886.5 |
| 20260510023241 | 22 | 0 | 3.2 | 8.0 | 0.00 | 0.00 | 0.00 | 25 | 886.3 |
| 20260510022737 | 23 | 334 | 1.6 | 3.2 | 0.00 | 0.00 | 0.00 | 22 | 886.1 |
| 20260510022232 | 24 | 308 | 0.0 | 1.6 | 0.00 | 0.00 | 0.00 | 20 | 885.9 |
| 20260510021726 | 24 | 279 | 1.6 | 11.3 | 0.00 | 0.00 | 0.00 | 19 | 885.5 |
| 20260510021225 | 23 | 53 | 0.0 | 3.2 | 0.00 | 0.00 | 0.00 | 20 | 885.4 |
| 20260510020725 | 21 | 270 | 0.0 | 1.6 | 0.00 | 0.00 | 0.00 | 28 | 885.7 |
| 20260510020220 | 21 | 218 | 0.0 | 0.0 | 0.00 | 0.00 | 0.00 | 28 | 885.4 |
| 20260510015716 | 21 | 216 | 0.0 | 0.0 | 0.00 | 0.00 | 0.00 | 27 | 885.3 |
| 20260510015212 | 22 | 224 | 0.0 | 0.0 | 0.00 | 0.00 | 0.00 | 26 | 885.2 |
| 20260510014707 | 22 | 230 | 0.0 | 0.0 | 0.00 | 0.00 | 0.00 | 27 | 885.1 |
| 20260510014205 | 21 | 197 | 0.0 | 0.0 | 0.00 | 0.00 | 0.00 | 27 | 884.9 |
| 20260510013700 | 21 | 192 | 0.0 | 0.0 | 0.00 | 0.00 | 0.00 | 26 | 884.7 |
| 20260510013156 | 22 | 192 | 0.0 | 0.0 | 0.00 | 0.00 | 0.00 | 26 | 884.5 |
| 20260510012656 | 22 | 192 | 0.0 | 0.0 | 0.00 | 0.00 | 0.00 | 27 | 884.7 |
| 20260510012151 | 22 | 192 | 0.0 | 0.0 | 0.00 | 0.00 | 0.00 | 25 | 884.5 |
| 20260510011647 | 22 | 192 | 0.0 | 0.0 | 0.00 | 0.00 | 0.00 | 24 | 884.5 |
| 20260510011142 | 22 | 179 | 0.0 | 0.0 | 0.00 | 0.00 | 0.00 | 25 | 884.7 |
| 20260510010638 | 22 | 166 | 0.0 | 0.0 | 0.00 | 0.00 | 0.00 | 26 | 884.4 |
| 20260510010136 | 22 | 144 | 0.0 | 0.0 | 0.00 | 0.00 | 0.00 | 24 | 884.1 |
| 20260510005631 | 22 | 137 | 0.0 | 0.0 | 0.00 | 0.00 | 0.00 | 25 | 884.5 |
| 20260510005129 | 23 | 125 | 0.0 | 0.0 | 0.00 | 0.00 | 0.00 | 25 | 884.3 |
| 20260510004627 | 23 | 121 | 0.0 | 0.0 | 0.00 | 0.00 | 0.00 | 25 | 884.1 |
| 20260510004125 | 23 | 126 | 0.0 | 0.0 | 0.00 | 0.00 | 0.00 | 25 | 884.1 |
| 20260510003622 | 23 | 171 | 0.0 | 0.0 | 0.00 | 0.00 | 0.00 | 24 | 884.2 |
| 20260510003118 | 23 | 166 | 0.0 | 0.0 | 0.00 | 0.00 | 0.00 | 23 | 884.2 |
| 20260510002612 | 23 | 138 | 0.0 | 0.0 | 0.00 | 0.00 | 0.00 | 23 | 884.4 |
| 20260510002109 | 23 | 125 | 0.0 | 0.0 | 0.00 | 0.00 | 0.00 | 22 | 884.4 |
| 20260510001606 | 23 | 134 | 4.8 | 8.0 | 0.00 | 0.00 | 0.00 | 22 | 884.5 |
| 20260510001106 | 24 | 127 | 3.2 | 4.8 | 0.00 | 0.00 | 0.00 | 22 | 884.6 |
| 20260510000605 | 24 | 136 | 3.2 | 4.8 | 0.00 | 0.00 | 0.00 | 21 | 884.6 |
| 20260509235559 | 25 | 156 | 1.6 | 3.2 | 0.00 | 0.00 | 0.00 | 22 | 884.9 |
| 20260509235056 | 25 | 124 | 8.0 | 14.5 | 0.00 | 0.00 | 0.00 | 21 | 884.8 |
| 20260509234552 | 24 | 128 | 0.0 | 0.0 | 0.00 | 0.00 | 0.00 | 20 | 885.1 |
| 20260509234050 | 24 | 109 | 11.3 | 14.5 | 0.00 | 0.00 | 0.00 | 20 | 885.4 |
| 20260509233547 | 25 | 261 | 11.3 | 16.1 | 0.00 | 0.00 | 0.00 | 19 | 884.9 |
| 20260509233044 | 25 | 259 | 4.8 | 4.8 | 0.00 | 0.00 | 0.00 | 18 | 884.9 |
| 20260509232541 | 25 | 215 | 17.7 | 22.5 | 0.00 | 0.00 | 0.00 | 18 | 884.5 |
| 20260509232038 | 26 | 235 | 0.0 | 0.0 | 0.00 | 0.00 | 0.00 | 18 | 884.6 |
| 20260509231533 | 26 | 349 | 4.8 | 8.0 | 0.00 | 0.00 | 0.00 | 17 | 884.5 |
| 20260509231032 | 26 | 313 | 1.6 | 4.8 | 0.00 | 0.00 | 0.00 | 18 | 884.1 |
| 20260509230528 | 26 | 94 | 0.0 | 0.0 | 0.00 | 0.00 | 0.00 | 18 | 884.2 |
| 20260509230025 | 26 | 137 | 0.0 | 0.0 | 0.00 | 0.00 | 0.00 | 18 | 883.9 |
| 20260509225520 | 26 | 263 | 0.0 | 0.0 | 0.00 | 0.00 | 0.00 | 17 | 884.0 |
| 20260509225016 | 27 | 136 | 0.0 | 0.0 | 0.00 | 0.00 | 0.00 | 18 | 883.9 |
| 20260509224512 | 27 | 309 | 1.6 | 3.2 | 0.00 | 0.00 | 0.00 | 17 | 883.9 |
| 20260509224009 | 28 | 131 | 6.4 | 9.7 | 0.00 | 0.00 | 0.00 | 16 | 883.9 |
| 20260509223506 | 28 | 60 | 3.2 | 8.0 | 0.00 | 0.00 | 0.00 | 17 | 884.0 |
| 20260509223004 | 28 | 208 | 3.2 | 3.2 | 0.00 | 0.00 | 0.00 | 18 | 883.8 |
| 20260509222459 | 28 | 168 | 0.0 | 1.6 | 0.00 | 0.00 | 0.00 | 17 | 883.9 |
| 20260509221955 | 30 | 255 | 6.4 | 9.7 | 0.00 | 0.00 | 0.00 | 17 | 884.0 |
| 20260509221451 | 29 | 131 | 0.0 | 0.0 | 0.00 | 0.00 | 0.00 | 17 | 884.1 |
| 20260509220948 | 29 | 223 | 0.0 | 0.0 | 0.00 | 0.00 | 0.00 | 18 | 883.9 |
| 20260509220444 | 27 | 156 | 0.0 | 0.0 | 0.00 | 0.00 | 0.00 | 17 | 883.9 |
| 20260509215939 | 27 | 142 | 3.2 | 4.8 | 0.00 | 0.00 | 0.00 | 19 | 884.0 |
| 20260509215435 | 26 | 151 | 4.8 | 9.7 | 0.00 | 0.00 | 0.00 | 18 | 884.2 |
| 20260509214933 | 26 | 225 | 0.0 | 1.6 | 0.00 | 0.00 | 0.00 | 19 | 884.4 |
| 20260509214430 | 25 | 252 | 17.7 | 22.5 | 0.00 | 0.00 | 0.00 | 19 | 884.6 |
| 20260509213927 | 24 | 280 | 22.5 | 32.2 | 0.00 | 0.00 | 0.00 | 20 | 884.5 |
| 20260509213422 | 25 | 274 | 14.5 | 17.7 | 0.00 | 0.00 | 0.00 | 21 | 884.5 |
| 20260509212920 | 26 | 224 | 4.8 | 9.7 | 0.00 | 0.00 | 0.00 | 17 | 884.5 |
| 20260509212418 | 26 | 250 | 1.6 | 3.2 | 0.00 | 0.00 | 0.00 | 16 | 884.6 |
| 20260509211914 | 27 | 350 | 3.2 | 4.8 | 0.00 | 0.00 | 0.00 | 16 | 884.4 |
| 20260509211410 | 27 | 328 | 1.6 | 4.8 | 0.00 | 0.00 | 0.00 | 17 | 884.3 |
| 20260509210906 | 27 | 293 | 4.8 | 8.0 | 0.00 | 0.00 | 0.00 | 16 | 884.3 |
| 20260509210403 | 28 | 225 | 1.6 | 3.2 | 0.00 | 0.00 | 0.00 | 16 | 884.2 |
| 20260509205858 | 30 | 265 | 9.7 | 11.3 | 0.00 | 0.00 | 0.00 | 15 | 884.3 |
| 20260509205352 | 29 | 239 | 4.8 | 4.8 | 0.00 | 0.00 | 0.00 | 16 | 884.4 |
| 20260509204849 | 30 | 312 | 8.0 | 12.9 | 0.00 | 0.00 | 0.00 | 17 | 884.2 |
| 20260509204346 | 29 | 302 | 4.8 | 4.8 | 0.00 | 0.00 | 0.00 | 15 | 884.2 |
| 20260509203842 | 30 | 229 | 0.0 | 1.6 | 0.00 | 0.00 | 0.00 | 16 | 884.3 |
| 20260509203338 | 30 | 343 | 8.0 | 9.7 | 0.00 | 0.00 | 0.00 | 16 | 884.4 |
| 20260509202835 | 29 | 322 | 4.8 | 4.8 | 0.00 | 0.00 | 0.00 | 18 | 884.4 |
| 20260509202331 | 30 | 337 | 6.4 | 12.9 | 0.00 | 0.00 | 0.00 | 16 | 884.7 |
| 20260509201831 | 28 | 348 | 3.2 | 4.8 | 0.00 | 0.00 | 0.00 | 16 | 884.5 |
| 20260509201328 | 30 | 336 | 4.8 | 8.0 | 0.00 | 0.00 | 0.00 | 16 | 884.5 |
| 20260509200824 | 30 | 314 | 8.0 | 11.3 | 0.00 | 0.00 | 0.00 | 16 | 884.6 |
| 20260509200320 | 28 | 137 | 0.0 | 0.0 | 0.00 | 0.00 | 0.00 | 17 | 884.6 |
| 20260509195817 | 29 | 235 | 0.0 | 1.6 | 0.00 | 0.00 | 0.00 | 18 | 884.9 |
| 20260509195317 | 30 | 285 | 3.2 | 4.8 | 0.00 | 0.00 | 0.00 | 17 | 884.9 |
| 20260509194817 | 29 | 296 | 4.8 | 4.8 | 0.00 | 0.00 | 0.00 | 17 | 884.9 |
| 20260509194313 | 28 | 298 | 9.7 | 12.9 | 0.00 | 0.00 | 0.00 | 17 | 884.9 |
| 20260509193810 | 27 | 280 | 1.6 | 4.8 | 0.00 | 0.00 | 0.00 | 18 | 884.9 |
| 20260509193309 | 27 | 89 | 0.0 | 1.6 | 0.00 | 0.00 | 0.00 | 20 | 884.9 |
| 20260509192806 | 27 | 127 | 0.0 | 0.0 | 0.00 | 0.00 | 0.00 | 19 | 884.9 |
| 20260509192305 | 27 | 229 | 0.0 | 0.0 | 0.00 | 0.00 | 0.00 | 19 | 884.8 |
| 20260509191757 | 28 | 185 | 0.0 | 0.0 | 0.00 | 0.00 | 0.00 | 19 | 884.9 |
| 20260509191253 | 28 | 328 | 1.6 | 3.2 | 0.00 | 0.00 | 0.00 | 18 | 884.9 |
| 20260509190749 | 26 | 255 | 0.0 | 0.0 | 0.00 | 0.00 | 0.00 | 19 | 885.1 |
| 20260509190247 | 28 | 294 | 1.6 | 3.2 | 0.00 | 0.00 | 0.00 | 18 | 885.2 |
| 20260509185744 | 28 | 202 | 8.0 | 11.3 | 0.00 | 0.00 | 0.00 | 20 | 885.1 |
| 20260509185240 | 28 | 32 | 4.8 | 9.7 | 0.00 | 0.00 | 0.00 | 21 | 885.2 |
| 20260509184738 | 27 | 202 | 0.0 | 0.0 | 0.00 | 0.00 | 0.00 | 22 | 885.4 |
| 20260509184235 | 27 | 225 | 8.0 | 9.7 | 0.00 | 0.00 | 0.00 | 21 | 885.4 |
| 20260509183731 | 26 | 172 | 0.0 | 0.0 | 0.00 | 0.00 | 0.00 | 24 | 885.5 |
| 20260509183226 | 27 | 246 | 1.6 | 4.8 | 0.00 | 0.00 | 0.00 | 22 | 885.4 |
| 20260509182722 | 27 | 221 | 14.5 | 16.1 | 0.00 | 0.00 | 0.00 | 22 | 885.5 |
| 20260509182220 | 27 | 263 | 6.4 | 9.7 | 0.00 | 0.00 | 0.00 | 24 | 885.7 |
| 20260509181717 | 27 | 253 | 8.0 | 11.3 | 0.00 | 0.00 | 0.00 | 23 | 885.9 |
| 20260509181215 | 27 | 230 | 3.2 | 8.0 | 0.00 | 0.00 | 0.00 | 23 | 885.8 |
| 20260509180712 | 27 | 353 | 11.3 | 14.5 | 0.00 | 0.00 | 0.00 | 23 | 885.8 |
| 20260509180208 | 26 | 212 | 12.9 | 16.1 | 0.00 | 0.00 | 0.00 | 24 | 886.1 |
| 20260509175704 | 26 | 243 | 9.7 | 14.5 | 0.00 | 0.00 | 0.00 | 23 | 886.1 |
| 20260509175201 | 25 | 260 | 12.9 | 16.1 | 0.00 | 0.00 | 0.00 | 25 | 886.1 |
| 20260509174656 | 26 | 262 | 14.5 | 17.7 | 0.00 | 0.00 | 0.00 | 26 | 886.3 |
| 20260509174151 | 25 | 290 | 11.3 | 16.1 | 0.00 | 0.00 | 0.00 | 27 | 886.6 |
| 20260509173648 | 25 | 264 | 9.7 | 14.5 | 0.00 | 0.00 | 0.00 | 27 | 886.6 |
| 20260509173143 | 25 | 262 | 17.7 | 20.9 | 0.00 | 0.00 | 0.00 | 28 | 886.5 |
| 20260509172640 | 24 | 239 | 9.7 | 14.5 | 0.00 | 0.00 | 0.00 | 29 | 886.5 |
| 20260509172136 | 24 | 263 | 14.5 | 16.1 | 0.00 | 0.00 | 0.00 | 30 | 886.6 |
| 20260509171632 | 23 | 260 | 14.5 | 16.1 | 0.00 | 0.00 | 0.00 | 30 | 886.6 |
| 20260509171128 | 24 | 185 | 11.3 | 16.1 | 0.00 | 0.00 | 0.00 | 29 | 886.6 |
| 20260509170625 | 23 | 228 | 4.8 | 9.7 | 0.00 | 0.00 | 0.00 | 31 | 886.8 |
| 20260509170121 | 23 | 229 | 8.0 | 9.7 | 0.00 | 0.00 | 0.00 | 32 | 886.8 |
| 20260509165619 | 23 | 235 | 9.7 | 11.3 | 0.00 | 0.00 | 0.00 | 31 | 886.8 |
| 20260509165115 | 23 | 267 | 14.5 | 20.9 | 0.00 | 0.00 | 0.00 | 31 | 887.0 |